メインページ
METAR-TAF:

METAR-TAF

空港 :

ウィンザー, オンタリオ州, カナダ

緯度: 42-16N, 経度: 082-58W, 海抜: 190m

現時点の気象観測

当レポートは18分前の09:00(UTC)に作成
北西の風 7kt
気温 16°C
湿度 77%
気圧 1016 hPa
視程: 14.5km
晴天

METAR: CYQG 230900Z AUTO 32007KT 9SM CLR 16/12 A3000 RMK SLP159 DENSITY ALT 800FT

時間: 05:18 (09:18 UTC)

予報

当レポートは3時間31分前の05:47(UTC)に作成
予報は23日の 06時(UTC)から 24日の 06時(UTC)まで有効
北/北西の風 5kt
視程: 10km
晴天
23日の 2100時(UTC)から
北/北東の風 12kt
視程: 8.0km
高度7000ftの千切れ雲あり
にわか雨
確率 30%
23日の 21時(UTC)から 23日の 24時(UTC)まで
視程: 3.2km
高度1500ftの千切れ雲あり
高度7000ftの曇り, 積乱雲.
激しい雷雨, 大雨, 靄
24日の 0000時(UTC)から
北/北西の風 12kt
視程: 10km
高度5000ftの千切れ雲あり
24日の 00時(UTC)から 24日の 03時(UTC)まで一時的に
視程: 10km
弱いにわか雨
24日の 0400時(UTC)から
北/北西の風 6kt
視程: 10km
高度7000ftの雲はほとんどない

TAF: CYQG 230547Z 2306/2406 33005KT P6SM SKC FM232100 02012KT 5SM SHRA BKN070 PROB30 2321/2324 2SM +TSRA BR BKN015 OVC070CB FM240000 33012KT P6SM BKN050 TEMPO 2400/2403 P6SM -SHRA FM240400 34006KT P6SM FEW070 RMK FCST BASED ON AUTO OBS. NXT FCST BY 231200Z

4,000以上の空港の気象観測と天気予報(METAR報とTAF報)

利用可能な観測所は地図上に黄色い丸と赤い丸で示す。

丸の上にカーソルを重ねると観測所名を参照できる。

次にクリックすると気象観測と天気予報を参照できる。

マップの切り替え:黒色「×」印の緑ボタンをクリックして拡大、「-」印の緑ボタンをクリックして縮小、緑色の三角印をクリックして隣りの地図に切り替え


METAR-TAF: